Time,TemperatureF,DewpointF,PressureIn,WindDirection,WindDirectionDegrees,WindSpeedMPH,WindSpeedGustMPH,Humidity,HourlyPrecipIn,Conditions,Clouds,dailyrainin,SoftwareType,DateUTC
2013-02-03 00:00:00,13.8,10.4,29.99,ESE,123,0.0,0.0,86,0.00,,,0.00,WUHU216DAVISVP2,2013-02-03 05:00:00,
2013-02-03 00:02:00,13.8,10.4,29.99,ESE,123,0.0,0.0,86,0.00,,,0.00,WUHU216DAVISVP2,2013-02-03 05:02:00,
2013-02-03 00:03:00,13.8,10.4,29.99,ESE,123,0.0,0.0,86,0.00,,,0.00,WUHU216DAVISVP2,2013-02-03 05:03:00,
2013-02-03 00:08:00,13.8,10.4,29.99,ESE,123,0.0,0.0,86,0.00,,,0.00,WUHU216DAVISVP2,2013-02-03 05:08:00,
2013-02-03 00:13:00,13.7,10.3,29.99,ESE,123,0.0,0.0,86,0.00,,,0.00,WUHU216DAVISVP2,2013-02-03 05:13:00,
2013-02-03 00:18:00,13.6,9.9,29.99,ESE,123,0.0,0.0,85,0.00,,,0.00,WUHU216DAVISVP2,2013-02-03 05:18:00,
2013-02-03 00:23:00,13.5,9.5,29.99,ESE,123,0.0,0.0,84,0.00,,,0.00,WUHU216DAVISVP2,2013-02-03 05:23:00,
2013-02-03 00:28:00,13.4,9.4,29.99,ESE,123,0.0,0.0,84,0.00,,,0.00,WUHU216DAVISVP2,2013-02-03 05:28:00,
2013-02-03 00:33:00,13.3,9.3,29.99,ESE,123,0.0,0.0,84,0.00,,,0.00,WUHU216DAVISVP2,2013-02-03 05:33:00,
2013-02-03 00:38:00,13.1,9.1,29.98,ESE,123,0.0,0.0,84,0.00,,,0.00,WUHU216DAVISVP2,2013-02-03 05:38:00,
2013-02-03 00:43:00,13.1,9.1,29.98,ESE,123,0.0,0.0,84,0.00,,,0.00,WUHU216DAVISVP2,2013-02-03 05:43:00,
2013-02-03 00:49:00,12.8,8.9,29.98,ESE,123,0.0,0.0,84,0.00,,,0.00,WUHU216DAVISVP2,2013-02-03 05:49:00,
2013-02-03 00:54:00,12.5,8.3,29.98,ESE,123,0.0,0.0,83,0.00,,,0.00,WUHU216DAVISVP2,2013-02-03 05:54:00,
2013-02-03 00:59:00,12.3,8.1,29.98,ESE,123,0.0,0.0,83,0.00,,,0.00,WUHU216DAVISVP2,2013-02-03 05:59:00,
2013-02-03 01:04:00,12.2,8.0,29.98,ESE,123,0.0,0.0,83,0.00,,,0.00,WUHU216DAVISVP2,2013-02-03 06:04:00,
2013-02-03 01:09:00,12.0,7.8,29.98,ESE,123,0.0,0.0,83,0.00,,,0.00,WUHU216DAVISVP2,2013-02-03 06:09:00,
2013-02-03 01:14:00,11.8,7.6,29.98,ESE,123,0.0,0.0,83,0.00,,,0.00,WUHU216DAVISVP2,2013-02-03 06:14:00,
2013-02-03 01:19:00,11.8,7.9,29.98,ESE,123,0.0,0.0,84,0.00,,,0.00,WUHU216DAVISVP2,2013-02-03 06:19:00,
2013-02-03 01:24:00,11.8,7.9,29.98,ESE,123,0.0,0.0,84,0.00,,,0.00,WUHU216DAVISVP2,2013-02-03 06:24:00,
2013-02-03 01:29:00,11.8,7.9,29.98,ESE,123,0.0,0.0,84,0.00,,,0.00,WUHU216DAVISVP2,2013-02-03 06:29:00,
2013-02-03 01:34:00,11.8,7.9,29.98,ESE,123,0.0,0.0,84,0.00,,,0.00,WUHU216DAVISVP2,2013-02-03 06:34:00,
2013-02-03 01:39:00,11.7,7.8,29.98,ESE,123,0.0,0.0,84,0.00,,,0.00,WUHU216DAVISVP2,2013-02-03 06:39:00,
2013-02-03 01:44:00,11.7,7.8,29.98,ESE,123,0.0,0.0,84,0.00,,,0.00,WUHU216DAVISVP2,2013-02-03 06:44:00,
2013-02-03 01:50:00,11.7,7.8,29.98,ESE,123,0.0,0.0,84,0.00,,,0.00,WUHU216DAVISVP2,2013-02-03 06:50:00,
2013-02-03 01:53:00,11.6,7.7,29.97,ESE,123,0.0,0.0,84,0.00,,,0.00,WUHU216DAVISVP2,2013-02-03 06:53:00,
2013-02-03 01:55:00,11.6,7.7,29.97,ESE,123,0.0,0.0,84,0.00,,,0.00,WUHU216DAVISVP2,2013-02-03 06:55:00,
2013-02-03 02:00:00,11.7,7.8,29.97,ESE,123,0.0,0.0,84,0.00,,,0.00,WUHU216DAVISVP2,2013-02-03 07:00:00,
2013-02-03 02:05:00,11.6,7.7,29.97,ESE,123,0.0,0.0,84,0.00,,,0.00,WUHU216DAVISVP2,2013-02-03 07:05:00,
2013-02-03 02:10:00,11.5,7.6,29.97,ESE,123,0.0,0.0,84,0.00,,,0.00,WUHU216DAVISVP2,2013-02-03 07:10:00,
2013-02-03 02:15:00,11.5,7.6,29.97,ESE,123,0.0,0.0,84,0.00,,,0.00,WUHU216DAVISVP2,2013-02-03 07:15:00,
2013-02-03 02:20:00,11.4,7.5,29.97,ESE,123,0.0,0.0,84,0.00,,,0.00,WUHU216DAVISVP2,2013-02-03 07:20:00,
2013-02-03 02:25:00,11.4,7.5,29.96,ESE,123,0.0,0.0,84,0.00,,,0.00,WUHU216DAVISVP2,2013-02-03 07:25:00,
2013-02-03 02:30:00,11.4,7.5,29.96,ESE,123,0.0,0.0,84,0.00,,,0.00,WUHU216DAVISVP2,2013-02-03 07:30:00,
2013-02-03 02:35:00,11.4,7.5,29.96,ESE,123,0.0,0.0,84,0.00,,,0.00,WUHU216DAVISVP2,2013-02-03 07:35:00,
2013-02-03 02:40:00,11.3,7.4,29.96,ESE,123,0.0,0.0,84,0.00,,,0.00,WUHU216DAVISVP2,2013-02-03 07:40:00,
2013-02-03 02:46:00,11.2,7.3,29.96,ESE,123,0.0,0.0,84,0.00,,,0.00,WUHU216DAVISVP2,2013-02-03 07:46:00,
2013-02-03 02:49:00,11.2,7.3,29.96,ESE,123,0.0,0.0,84,0.00,,,0.00,WUHU216DAVISVP2,2013-02-03 07:49:00,
2013-02-03 02:51:00,11.2,7.3,29.96,ESE,123,0.0,0.0,84,0.00,,,0.00,WUHU216DAVISVP2,2013-02-03 07:51:00,
2013-02-03 02:56:00,11.2,7.3,29.96,ESE,123,0.0,0.0,84,0.00,,,0.00,WUHU216DAVISVP2,2013-02-03 07:56:00,
2013-02-03 03:01:00,11.2,7.3,29.96,ESE,123,0.0,0.0,84,0.00,,,0.00,WUHU216DAVISVP2,2013-02-03 08:01:00,
2013-02-03 03:06:00,11.2,7.3,29.96,ESE,123,0.0,0.0,84,0.00,,,0.00,WUHU216DAVISVP2,2013-02-03 08:06:00,
2013-02-03 03:11:00,11.2,7.5,29.95,ESE,123,0.0,0.0,85,0.00,,,0.00,WUHU216DAVISVP2,2013-02-03 08:11:00,
2013-02-03 03:16:00,11.2,7.3,29.95,ESE,123,0.0,0.0,84,0.00,,,0.00,WUHU216DAVISVP2,2013-02-03 08:16:00,
2013-02-03 03:21:00,11.2,7.3,29.95,ESE,123,0.0,0.0,84,0.00,,,0.00,WUHU216DAVISVP2,2013-02-03 08:21:00,
2013-02-03 03:26:00,11.2,7.3,29.94,ESE,123,0.0,0.0,84,0.00,,,0.00,WUHU216DAVISVP2,2013-02-03 08:26:00,
2013-02-03 03:32:00,11.2,7.3,29.93,ESE,123,0.0,0.0,84,0.00,,,0.00,WUHU216DAVISVP2,2013-02-03 08:32:00,
2013-02-03 03:37:00,11.2,7.3,29.93,ESE,123,0.0,0.0,84,0.00,,,0.00,WUHU216DAVISVP2,2013-02-03 08:37:00,
2013-02-03 03:42:00,11.1,7.2,29.93,ESE,123,0.0,0.0,84,0.00,,,0.00,WUHU216DAVISVP2,2013-02-03 08:42:00,
2013-02-03 03:47:00,11.1,7.2,29.93,ESE,123,0.0,0.0,84,0.00,,,0.00,WUHU216DAVISVP2,2013-02-03 08:47:00,
2013-02-03 03:52:00,10.9,6.7,29.93,ESE,123,0.0,0.0,83,0.00,,,0.00,WUHU216DAVISVP2,2013-02-03 08:52:00,
2013-02-03 03:57:00,10.9,6.7,29.93,ESE,123,0.0,0.0,83,0.00,,,0.00,WUHU216DAVISVP2,2013-02-03 08:57:00,
2013-02-03 04:02:00,10.8,6.6,29.93,ESE,123,0.0,0.0,83,0.00,,,0.00,WUHU216DAVISVP2,2013-02-03 09:02:00,
2013-02-03 04:07:00,10.7,6.5,29.93,ESE,123,0.0,0.0,83,0.00,,,0.00,WUHU216DAVISVP2,2013-02-03 09:07:00,
2013-02-03 04:12:00,10.6,6.4,29.92,ESE,123,0.0,0.0,83,0.00,,,0.00,WUHU216DAVISVP2,2013-02-03 09:12:00,
2013-02-03 04:18:00,10.5,6.3,29.92,ESE,123,0.0,0.0,83,0.00,,,0.00,WUHU216DAVISVP2,2013-02-03 09:18:00,
2013-02-03 04:23:00,10.4,6.2,29.92,ESE,123,0.0,0.0,83,0.00,,,0.00,WUHU216DAVISVP2,2013-02-03 09:23:00,
2013-02-03 04:28:00,10.4,6.2,29.92,ESE,123,0.0,0.0,83,0.00,,,0.00,WUHU216DAVISVP2,2013-02-03 09:28:00,
2013-02-03 04:33:00,10.4,6.2,29.92,ESE,123,0.0,0.0,83,0.00,,,0.00,WUHU216DAVISVP2,2013-02-03 09:33:00,
2013-02-03 04:38:00,10.4,6.2,29.92,ESE,123,0.0,0.0,83,0.00,,,0.00,WUHU216DAVISVP2,2013-02-03 09:38:00,
2013-02-03 04:43:00,10.3,6.1,29.92,ESE,123,0.0,0.0,83,0.00,,,0.00,WUHU216DAVISVP2,2013-02-03 09:43:00,
2013-02-03 04:48:00,10.3,6.1,29.92,ESE,123,0.0,0.0,83,0.00,,,0.00,WUHU216DAVISVP2,2013-02-03 09:48:00,
2013-02-03 04:53:00,10.3,6.1,29.92,ESE,123,0.0,0.0,83,0.00,,,0.00,WUHU216DAVISVP2,2013-02-03 09:53:00,
2013-02-03 04:57:00,10.2,6.0,29.92,ESE,123,0.0,0.0,83,0.00,,,0.00,WUHU216DAVISVP2,2013-02-03 09:57:00,
2013-02-03 04:59:00,10.2,6.0,29.92,ESE,123,0.0,0.0,83,0.00,,,0.00,WUHU216DAVISVP2,2013-02-03 09:59:00,
2013-02-03 05:04:00,10.2,6.0,29.92,ESE,123,0.0,0.0,83,0.00,,,0.00,WUHU216DAVISVP2,2013-02-03 10:04:00,
2013-02-03 05:09:00,10.1,5.9,29.92,ESE,123,0.0,0.0,83,0.00,,,0.00,WUHU216DAVISVP2,2013-02-03 10:09:00,
2013-02-03 05:14:00,10.0,5.8,29.92,ESE,123,0.0,0.0,83,0.00,,,0.00,WUHU216DAVISVP2,2013-02-03 10:14:00,
2013-02-03 05:19:00,9.9,5.8,29.92,ESE,123,0.0,0.0,83,0.00,,,0.00,WUHU216DAVISVP2,2013-02-03 10:19:00,
2013-02-03 05:24:00,9.9,5.8,29.92,ESE,123,0.0,0.0,83,0.00,,,0.00,WUHU216DAVISVP2,2013-02-03 10:24:00,
2013-02-03 05:29:00,9.8,5.9,29.92,ESE,123,0.0,0.0,84,0.00,,,0.00,WUHU216DAVISVP2,2013-02-03 10:29:00,
2013-02-03 05:34:00,9.8,5.7,29.92,ESE,123,0.0,0.0,83,0.00,,,0.00,WUHU216DAVISVP2,2013-02-03 10:34:00,
2013-02-03 05:38:00,9.8,5.7,29.92,ESE,123,0.0,0.0,83,0.00,,,0.00,WUHU216DAVISVP2,2013-02-03 10:38:00,
2013-02-03 05:40:00,9.8,5.7,29.92,ESE,123,0.0,0.0,83,0.00,,,0.00,WUHU216DAVISVP2,2013-02-03 10:40:00,
2013-02-03 05:45:00,9.8,5.7,29.92,ESE,123,0.0,0.0,83,0.00,,,0.00,WUHU216DAVISVP2,2013-02-03 10:45:00,
2013-02-03 05:50:00,9.7,5.6,29.92,ESE,123,0.0,0.0,83,0.00,,,0.00,WUHU216DAVISVP2,2013-02-03 10:50:00,
2013-02-03 05:55:00,9.6,5.5,29.92,ESE,123,0.0,0.0,83,0.00,,,0.00,WUHU216DAVISVP2,2013-02-03 10:55:00,
2013-02-03 06:00:00,9.6,5.5,29.92,ESE,123,0.0,0.0,83,0.00,,,0.00,WUHU216DAVISVP2,2013-02-03 11:00:00,
2013-02-03 06:05:00,9.6,5.7,29.91,ESE,123,0.0,0.0,84,0.00,,,0.00,WUHU216DAVISVP2,2013-02-03 11:05:00,
2013-02-03 06:10:00,9.7,5.8,29.91,ESE,123,0.0,0.0,84,0.00,,,0.00,WUHU216DAVISVP2,2013-02-03 11:10:00,
2013-02-03 06:15:00,9.8,6.2,29.91,ESE,123,0.0,0.0,85,0.00,,,0.00,WUHU216DAVISVP2,2013-02-03 11:15:00,
2013-02-03 06:20:00,10.0,6.4,29.91,ESE,123,0.0,0.0,85,0.00,,,0.00,WUHU216DAVISVP2,2013-02-03 11:20:00,
2013-02-03 06:26:00,10.2,6.6,29.91,ESE,123,0.0,0.0,85,0.00,,,0.00,WUHU216DAVISVP2,2013-02-03 11:26:00,
2013-02-03 06:31:00,10.4,6.8,29.91,ESE,123,0.0,0.0,85,0.00,,,0.00,WUHU216DAVISVP2,2013-02-03 11:31:00,
2013-02-03 06:36:00,10.4,6.8,29.91,ESE,123,0.0,0.0,85,0.00,,,0.00,WUHU216DAVISVP2,2013-02-03 11:36:00,
2013-02-03 06:41:00,10.5,6.6,29.91,ESE,123,0.0,0.0,84,0.00,,,0.00,WUHU216DAVISVP2,2013-02-03 11:41:00,
2013-02-03 06:46:00,10.5,6.6,29.91,ESE,123,0.0,0.0,84,0.00,,,0.00,WUHU216DAVISVP2,2013-02-03 11:46:00,
2013-02-03 06:51:00,10.4,6.5,29.91,ESE,123,0.0,0.0,84,0.00,,,0.00,WUHU216DAVISVP2,2013-02-03 11:51:00,
2013-02-03 06:56:00,10.5,6.6,29.91,ESE,123,0.0,0.0,84,0.00,,,0.00,WUHU216DAVISVP2,2013-02-03 11:56:00,
2013-02-03 07:02:00,10.5,6.6,29.91,ESE,123,0.0,0.0,84,0.00,,,0.00,WUHU216DAVISVP2,2013-02-03 12:02:00,
2013-02-03 07:07:00,10.6,7.0,29.91,ESE,123,0.0,0.0,85,0.00,,,0.00,WUHU216DAVISVP2,2013-02-03 12:07:00,
2013-02-03 07:09:00,10.6,7.0,29.91,ESE,123,0.0,0.0,85,0.00,,,0.00,WUHU216DAVISVP2,2013-02-03 12:09:00,
2013-02-03 07:12:00,10.7,7.0,29.91,ESE,123,0.0,0.0,85,0.00,,,0.00,WUHU216DAVISVP2,2013-02-03 12:12:00,
2013-02-03 07:17:00,10.8,7.1,29.91,ESE,123,0.0,0.0,85,0.00,,,0.00,WUHU216DAVISVP2,2013-02-03 12:17:00,
2013-02-03 07:22:00,10.8,7.1,29.91,ESE,123,0.0,0.0,85,0.00,,,0.00,WUHU216DAVISVP2,2013-02-03 12:22:00,
2013-02-03 07:27:00,11.0,7.3,29.91,ESE,123,0.0,0.0,85,0.00,,,0.00,WUHU216DAVISVP2,2013-02-03 12:27:00,
2013-02-03 07:32:00,11.0,7.1,29.91,ESE,123,0.0,0.0,84,0.00,,,0.00,WUHU216DAVISVP2,2013-02-03 12:32:00,
2013-02-03 07:37:00,11.0,7.1,29.91,ESE,123,0.0,0.0,84,0.00,,,0.00,WUHU216DAVISVP2,2013-02-03 12:37:00,
2013-02-03 07:42:00,11.0,7.1,29.91,ESE,123,0.0,0.0,84,0.00,,,0.00,WUHU216DAVISVP2,2013-02-03 12:42:00,
2013-02-03 07:47:00,11.0,7.3,29.91,ESE,123,0.0,0.0,85,0.00,,,0.00,WUHU216DAVISVP2,2013-02-03 12:47:00,
2013-02-03 07:52:00,11.1,7.2,29.91,ESE,123,0.0,0.0,84,0.00,,,0.00,WUHU216DAVISVP2,2013-02-03 12:52:00,
2013-02-03 07:57:00,11.1,7.2,29.91,ESE,123,0.0,0.0,84,0.00,,,0.00,WUHU216DAVISVP2,2013-02-03 12:57:00,
2013-02-03 08:02:00,11.1,7.2,29.91,ESE,123,0.0,0.0,84,0.00,,,0.00,WUHU216DAVISVP2,2013-02-03 13:02:00,
2013-02-03 08:08:00,11.2,7.5,29.91,ESE,123,0.0,0.0,85,0.00,,,0.00,WUHU216DAVISVP2,2013-02-03 13:08:00,
2013-02-03 08:13:00,11.3,7.6,29.91,ESE,123,0.0,0.0,85,0.00,,,0.00,WUHU216DAVISVP2,2013-02-03 13:13:00,
2013-02-03 08:18:00,11.4,7.7,29.91,ESE,123,0.0,0.0,85,0.00,,,0.00,WUHU216DAVISVP2,2013-02-03 13:18:00,
2013-02-03 08:23:00,11.4,7.7,29.91,ESE,123,0.0,0.0,85,0.00,,,0.00,WUHU216DAVISVP2,2013-02-03 13:23:00,
2013-02-03 08:28:00,11.5,7.8,29.91,ESE,123,0.0,0.0,85,0.00,,,0.00,WUHU216DAVISVP2,2013-02-03 13:28:00,
2013-02-03 08:33:00,11.5,7.8,29.91,ESE,123,0.0,0.0,85,0.00,,,0.00,WUHU216DAVISVP2,2013-02-03 13:33:00,
2013-02-03 08:38:00,11.8,8.4,29.91,ESE,123,0.0,0.0,86,0.00,,,0.00,WUHU216DAVISVP2,2013-02-03 13:38:00,
2013-02-03 08:43:00,11.9,8.5,29.91,ESE,123,0.0,0.0,86,0.00,,,0.00,WUHU216DAVISVP2,2013-02-03 13:43:00,
2013-02-03 08:48:00,12.0,8.3,29.91,ESE,123,0.0,0.0,85,0.00,,,0.00,WUHU216DAVISVP2,2013-02-03 13:48:00,
2013-02-03 08:53:00,12.1,8.4,29.92,ESE,123,0.0,0.0,85,0.00,,,0.00,WUHU216DAVISVP2,2013-02-03 13:53:00,
2013-02-03 08:58:00,12.2,8.5,29.92,ESE,123,0.0,0.0,85,0.00,,,0.00,WUHU216DAVISVP2,2013-02-03 13:58:00,
2013-02-03 09:03:00,12.3,8.9,29.92,ESE,123,0.0,0.0,86,0.00,,,0.00,WUHU216DAVISVP2,2013-02-03 14:03:00,
2013-02-03 09:08:00,12.4,9.0,29.92,ESE,123,0.0,0.0,86,0.00,,,0.00,WUHU216DAVISVP2,2013-02-03 14:08:00,
2013-02-03 09:13:00,12.5,9.1,29.92,ESE,123,0.0,0.0,86,0.00,,,0.00,WUHU216DAVISVP2,2013-02-03 14:13:00,
2013-02-03 09:18:00,12.7,9.3,29.92,ESE,123,0.0,0.0,86,0.00,,,0.00,WUHU216DAVISVP2,2013-02-03 14:18:00,
2013-02-03 09:24:00,13.0,9.6,29.92,ESE,123,0.0,0.0,86,0.00,,,0.00,WUHU216DAVISVP2,2013-02-03 14:24:00,
2013-02-03 09:29:00,13.2,9.8,29.92,ESE,123,0.0,0.0,86,0.00,,,0.00,WUHU216DAVISVP2,2013-02-03 14:29:00,
2013-02-03 09:34:00,13.5,10.1,29.92,ESE,123,0.0,0.0,86,0.00,,,0.00,WUHU216DAVISVP2,2013-02-03 14:34:00,
2013-02-03 09:39:00,13.7,10.3,29.92,ESE,122,0.0,0.0,86,0.00,,,0.00,WUHU216DAVISVP2,2013-02-03 14:39:00,
2013-02-03 09:44:00,14.1,10.6,29.92,ESE,122,0.0,0.0,86,0.00,,,0.00,WUHU216DAVISVP2,2013-02-03 14:44:00,
2013-02-03 09:49:00,14.4,10.9,29.92,ESE,122,0.0,0.0,86,0.00,,,0.00,WUHU216DAVISVP2,2013-02-03 14:49:00,
2013-02-03 09:54:00,14.6,11.1,29.92,ESE,122,0.0,0.0,86,0.00,,,0.00,WUHU216DAVISVP2,2013-02-03 14:54:00,
2013-02-03 09:59:00,14.8,11.1,29.92,ESE,122,0.0,0.0,85,0.00,,,0.00,WUHU216DAVISVP2,2013-02-03 14:59:00,
2013-02-03 10:04:00,15.1,11.4,29.91,ESE,122,0.0,0.0,85,0.00,,,0.00,WUHU216DAVISVP2,2013-02-03 15:04:00,
2013-02-03 10:09:00,15.3,11.6,29.91,ESE,122,0.0,0.0,85,0.00,,,0.00,WUHU216DAVISVP2,2013-02-03 15:09:00,
2013-02-03 10:14:00,15.7,12.0,29.91,ESE,122,0.0,0.0,85,0.00,,,0.00,WUHU216DAVISVP2,2013-02-03 15:14:00,
2013-02-03 10:19:00,15.9,11.9,29.91,ESE,122,0.0,0.0,84,0.00,,,0.00,WUHU216DAVISVP2,2013-02-03 15:19:00,
2013-02-03 10:24:00,16.1,11.8,29.90,ESE,122,0.0,0.0,83,0.00,,,0.00,WUHU216DAVISVP2,2013-02-03 15:24:00,
2013-02-03 10:30:00,16.2,11.7,29.91,ESE,122,0.0,0.0,82,0.00,,,0.00,WUHU216DAVISVP2,2013-02-03 15:30:00,
2013-02-03 10:35:00,16.3,11.8,29.91,ESE,122,0.0,0.0,82,0.00,,,0.00,WUHU216DAVISVP2,2013-02-03 15:35:00,
2013-02-03 10:40:00,16.5,12.2,29.91,ESE,122,0.0,0.0,83,0.00,,,0.00,WUHU216DAVISVP2,2013-02-03 15:40:00,
2013-02-03 10:45:00,16.7,12.4,29.91,ESE,122,0.0,0.0,83,0.00,,,0.00,WUHU216DAVISVP2,2013-02-03 15:45:00,
2013-02-03 10:50:00,17.0,13.0,29.90,ESE,122,0.0,0.0,84,0.00,,,0.00,WUHU216DAVISVP2,2013-02-03 15:50:00,
2013-02-03 10:55:00,17.2,13.2,29.90,ESE,122,0.0,0.0,84,0.00,,,0.00,WUHU216DAVISVP2,2013-02-03 15:55:00,
2013-02-03 11:00:00,17.3,13.0,29.90,ESE,122,0.0,0.0,83,0.00,,,0.00,WUHU216DAVISVP2,2013-02-03 16:00:00,
2013-02-03 11:06:00,17.5,12.9,29.90,ESE,122,0.0,0.0,82,0.00,,,0.00,WUHU216DAVISVP2,2013-02-03 16:06:00,
2013-02-03 11:11:00,17.8,13.8,29.90,ESE,122,0.0,0.0,84,0.00,,,0.00,WUHU216DAVISVP2,2013-02-03 16:11:00,
2013-02-03 11:16:00,18.1,16.1,29.90,ESE,122,0.0,0.0,92,0.00,,,0.00,WUHU216DAVISVP2,2013-02-03 16:16:00,
2013-02-03 11:21:00,18.4,14.3,29.90,ESE,122,0.0,0.0,84,0.00,,,0.00,WUHU216DAVISVP2,2013-02-03 16:21:00,
2013-02-03 11:26:00,18.7,14.4,29.90,ESE,122,0.0,0.0,83,0.00,,,0.00,WUHU216DAVISVP2,2013-02-03 16:26:00,
2013-02-03 11:31:00,19.0,14.7,29.90,ESE,122,0.0,0.0,83,0.00,,,0.00,WUHU216DAVISVP2,2013-02-03 16:31:00,
2013-02-03 11:36:00,19.4,15.1,29.90,ESE,122,0.0,0.0,83,0.00,,,0.00,WUHU216DAVISVP2,2013-02-03 16:36:00,
2013-02-03 11:41:00,19.7,15.4,29.90,ESE,122,0.0,0.0,83,0.00,,,0.00,WUHU216DAVISVP2,2013-02-03 16:41:00,
2013-02-03 11:46:00,20.4,16.3,29.90,ESE,122,0.0,0.0,84,0.00,,,0.00,WUHU216DAVISVP2,2013-02-03 16:46:00,
2013-02-03 11:51:00,21.0,16.4,29.89,ESE,123,0.0,0.0,82,0.00,,,0.00,WUHU216DAVISVP2,2013-02-03 16:51:00,
2013-02-03 11:56:00,21.6,16.7,29.89,ESE,123,0.0,0.0,81,0.00,,,0.00,WUHU216DAVISVP2,2013-02-03 16:56:00,
2013-02-03 12:02:00,22.4,17.7,29.89,ESE,117,0.0,0.0,82,0.00,,,0.00,WUHU216DAVISVP2,2013-02-03 17:02:00,
2013-02-03 12:07:00,23.2,18.8,29.89,ESE,117,0.0,0.0,83,0.00,,,0.00,WUHU216DAVISVP2,2013-02-03 17:07:00,
2013-02-03 12:12:00,23.6,17.8,29.88,ESE,117,0.0,0.0,78,0.00,,,0.00,WUHU216DAVISVP2,2013-02-03 17:12:00,
2013-02-03 12:17:00,23.5,17.4,29.88,ESE,115,0.0,0.0,77,0.00,,,0.00,WUHU216DAVISVP2,2013-02-03 17:17:00,
2013-02-03 12:22:00,23.5,17.7,29.87,ESE,115,0.0,0.0,78,0.00,,,0.00,WUHU216DAVISVP2,2013-02-03 17:22:00,
2013-02-03 12:28:00,23.4,17.6,29.87,ESE,123,0.0,0.0,78,0.00,,,0.00,WUHU216DAVISVP2,2013-02-03 17:28:00,
2013-02-03 12:33:00,23.5,17.7,29.87,ESE,123,0.0,0.0,78,0.00,,,0.00,WUHU216DAVISVP2,2013-02-03 17:33:00,
2013-02-03 12:38:00,23.8,18.0,29.87,ESE,112,0.0,0.0,78,0.01,,,0.01,WUHU216DAVISVP2,2013-02-03 17:38:00,
2013-02-03 12:41:00,24.4,17.9,29.86,NE,54,0.0,0.0,76,0.01,,,0.01,WUHU216DAVISVP2,2013-02-03 17:41:00,
2013-02-03 12:43:00,24.4,17.9,29.86,NE,54,0.0,0.0,76,0.01,,,0.01,WUHU216DAVISVP2,2013-02-03 17:43:00,
2013-02-03 12:48:00,24.4,17.9,29.86,NE,54,0.0,0.0,76,0.01,,,0.01,WUHU216DAVISVP2,2013-02-03 17:48:00,
2013-02-03 12:53:00,25.0,19.1,29.87,NNE,30,0.0,0.0,78,0.01,,,0.01,WUHU216DAVISVP2,2013-02-03 17:53:00,
2013-02-03 12:58:00,25.1,18.6,29.86,ESE,121,0.0,0.0,76,0.01,,,0.01,WUHU216DAVISVP2,2013-02-03 17:58:00,
2013-02-03 13:03:00,25.2,19.0,29.86,ESE,122,0.0,0.0,77,0.01,,,0.01,WUHU216DAVISVP2,2013-02-03 18:03:00,
2013-02-03 13:06:00,25.3,18.8,29.86,East,80,0.0,0.0,76,0.01,,,0.01,WUHU216DAVISVP2,2013-02-03 18:06:00,
2013-02-03 13:08:00,25.3,18.8,29.86,East,80,0.0,0.0,76,0.01,,,0.01,WUHU216DAVISVP2,2013-02-03 18:08:00,
2013-02-03 13:14:00,25.3,18.8,29.86,East,80,0.0,0.0,76,0.01,,,0.01,WUHU216DAVISVP2,2013-02-03 18:14:00,
2013-02-03 13:19:00,24.9,18.1,29.86,NE,49,0.0,0.0,75,0.01,,,0.01,WUHU216DAVISVP2,2013-02-03 18:19:00,
2013-02-03 13:24:00,24.7,17.9,29.86,ENE,65,0.0,0.0,75,0.01,,,0.01,WUHU216DAVISVP2,2013-02-03 18:24:00,
2013-02-03 13:29:00,24.7,18.2,29.86,East,88,0.0,0.0,76,0.01,,,0.01,WUHU216DAVISVP2,2013-02-03 18:29:00,
2013-02-03 13:34:00,24.6,18.1,29.86,North,5,0.0,0.0,76,0.01,,,0.01,WUHU216DAVISVP2,2013-02-03 18:34:00,
2013-02-03 13:39:00,24.8,18.0,29.86,NE,35,0.0,0.0,75,0.00,,,0.01,WUHU216DAVISVP2,2013-02-03 18:39:00,
2013-02-03 13:44:00,24.8,18.0,29.86,NE,35,0.0,0.0,75,0.00,,,0.01,WUHU216DAVISVP2,2013-02-03 18:44:00,
2013-02-03 13:49:00,24.7,17.9,29.86,ENE,63,0.0,0.0,75,0.00,,,0.01,WUHU216DAVISVP2,2013-02-03 18:49:00,
2013-02-03 13:54:00,24.7,17.6,29.86,NE,39,0.0,0.0,74,0.00,,,0.01,WUHU216DAVISVP2,2013-02-03 18:54:00,
2013-02-03 13:59:00,24.7,17.0,29.85,WSW,244,0.0,0.0,72,0.00,,,0.01,WUHU216DAVISVP2,2013-02-03 18:59:00,
2013-02-03 14:04:00,24.6,16.6,29.85,NNE,32,0.0,0.0,71,0.00,,,0.01,WUHU216DAVISVP2,2013-02-03 19:04:00,
2013-02-03 14:10:00,24.5,17.4,29.85,NE,44,0.0,0.0,74,0.00,,,0.01,WUHU216DAVISVP2,2013-02-03 19:10:00,
2013-02-03 14:15:00,24.4,17.3,29.85,ENE,58,0.0,0.0,74,0.00,,,0.01,WUHU216DAVISVP2,2013-02-03 19:15:00,
2013-02-03 14:20:00,24.5,17.1,29.85,NE,34,0.0,0.0,73,0.00,,,0.01,WUHU216DAVISVP2,2013-02-03 19:20:00,
2013-02-03 14:25:00,24.5,17.7,29.85,NE,50,0.0,0.0,75,0.00,,,0.01,WUHU216DAVISVP2,2013-02-03 19:25:00,
2013-02-03 14:30:00,24.5,17.1,29.85,ENE,60,0.0,0.0,73,0.00,,,0.01,WUHU216DAVISVP2,2013-02-03 19:30:00,
2013-02-03 14:35:00,24.3,16.9,29.85,East,98,0.0,0.0,73,0.00,,,0.01,WUHU216DAVISVP2,2013-02-03 19:35:00,
2013-02-03 14:40:00,24.3,16.9,29.85,East,98,0.0,0.0,73,0.00,,,0.01,WUHU216DAVISVP2,2013-02-03 19:40:00,
2013-02-03 14:45:00,24.2,17.5,29.85,NE,51,0.0,0.0,75,0.00,,,0.01,WUHU216DAVISVP2,2013-02-03 19:45:00,
2013-02-03 14:50:00,24.2,17.1,29.85,NNW,339,0.0,0.0,74,0.00,,,0.01,WUHU216DAVISVP2,2013-02-03 19:50:00,
2013-02-03 14:55:00,24.4,17.3,29.86,East,82,0.0,0.0,74,0.00,,,0.01,WUHU216DAVISVP2,2013-02-03 19:55:00,
2013-02-03 15:00:00,24.4,17.0,29.86,SSE,167,0.0,0.0,73,0.00,,,0.01,WUHU216DAVISVP2,2013-02-03 20:00:00,
2013-02-03 15:05:00,24.4,17.6,29.86,SSE,167,0.0,0.0,75,0.00,,,0.01,WUHU216DAVISVP2,2013-02-03 20:05:00,
2013-02-03 15:10:00,24.4,17.6,29.86,SSE,167,0.0,0.0,75,0.00,,,0.01,WUHU216DAVISVP2,2013-02-03 20:10:00,
2013-02-03 15:15:00,24.4,17.6,29.86,SSE,167,0.0,0.0,75,0.00,,,0.01,WUHU216DAVISVP2,2013-02-03 20:15:00,
2013-02-03 15:20:00,24.3,17.5,29.87,SSE,167,0.0,0.0,75,0.00,,,0.01,WUHU216DAVISVP2,2013-02-03 20:20:00,
2013-02-03 15:25:00,24.3,17.5,29.87,NE,55,0.0,0.0,75,0.00,,,0.01,WUHU216DAVISVP2,2013-02-03 20:25:00,
2013-02-03 15:30:00,24.2,17.5,29.87,ESE,120,0.0,0.0,75,0.00,,,0.01,WUHU216DAVISVP2,2013-02-03 20:30:00,
2013-02-03 15:35:00,24.2,17.5,29.87,NNE,32,0.0,0.0,75,0.00,,,0.01,WUHU216DAVISVP2,2013-02-03 20:35:00,
2013-02-03 15:40:00,24.2,17.5,29.88,ENE,70,0.0,0.0,75,0.00,,,0.01,WUHU216DAVISVP2,2013-02-03 20:40:00,
2013-02-03 15:46:00,24.2,17.5,29.87,NE,53,0.0,0.0,75,0.00,,,0.01,WUHU216DAVISVP2,2013-02-03 20:46:00,
2013-02-03 15:51:00,24.2,17.5,29.88,East,81,0.0,0.0,75,0.00,,,0.01,WUHU216DAVISVP2,2013-02-03 20:51:00,
2013-02-03 15:56:00,24.0,17.6,29.88,ENE,72,0.0,0.0,76,0.00,,,0.01,WUHU216DAVISVP2,2013-02-03 20:56:00,
2013-02-03 16:01:00,24.0,17.6,29.88,North,360,0.0,0.0,76,0.00,,,0.01,WUHU216DAVISVP2,2013-02-03 21:01:00,
2013-02-03 16:06:00,24.1,17.7,29.88,NE,56,0.0,0.0,76,0.00,,,0.01,WUHU216DAVISVP2,2013-02-03 21:06:00,
2013-02-03 16:11:00,24.0,17.6,29.88,ENE,57,0.0,0.0,76,0.00,,,0.01,WUHU216DAVISVP2,2013-02-03 21:11:00,
2013-02-03 16:16:00,24.0,17.6,29.88,NE,52,0.0,0.0,76,0.00,,,0.01,WUHU216DAVISVP2,2013-02-03 21:16:00,
2013-02-03 16:22:00,23.9,17.8,29.89,ENE,74,0.0,0.0,77,0.00,,,0.01,WUHU216DAVISVP2,2013-02-03 21:22:00,
2013-02-03 16:27:00,23.9,17.8,29.89,ENE,62,0.0,0.0,77,0.00,,,0.01,WUHU216DAVISVP2,2013-02-03 21:27:00,
2013-02-03 16:32:00,23.9,17.8,29.89,NE,53,0.0,0.0,77,0.00,,,0.01,WUHU216DAVISVP2,2013-02-03 21:32:00,
2013-02-03 16:37:00,23.9,17.8,29.89,ENE,64,0.0,0.0,77,0.00,,,0.01,WUHU216DAVISVP2,2013-02-03 21:37:00,
2013-02-03 16:42:00,23.9,17.8,29.89,ESE,123,0.0,0.0,77,0.00,,,0.01,WUHU216DAVISVP2,2013-02-03 21:42:00,
2013-02-03 16:47:00,23.9,17.8,29.89,ENE,61,0.0,0.0,77,0.00,,,0.01,WUHU216DAVISVP2,2013-02-03 21:47:00,
2013-02-03 16:52:00,23.9,17.8,29.89,NNE,29,0.0,0.0,77,0.00,,,0.01,WUHU216DAVISVP2,2013-02-03 21:52:00,
2013-02-03 16:57:00,23.9,18.1,29.89,ENE,61,0.0,0.0,78,0.00,,,0.01,WUHU216DAVISVP2,2013-02-03 21:57:00,
2013-02-03 17:02:00,23.8,18.2,29.89,West,265,0.0,0.0,79,0.00,,,0.01,WUHU216DAVISVP2,2013-02-03 22:02:00,
2013-02-03 17:07:00,23.6,18.3,29.90,ENE,64,0.0,0.0,80,0.00,,,0.01,WUHU216DAVISVP2,2013-02-03 22:07:00,
2013-02-03 17:12:00,23.5,18.2,29.90,NNE,15,0.0,0.0,80,0.00,,,0.01,WUHU216DAVISVP2,2013-02-03 22:12:00,
2013-02-03 17:17:00,23.4,18.7,29.90,NE,40,0.0,0.0,82,0.00,,,0.01,WUHU216DAVISVP2,2013-02-03 22:17:00,
2013-02-03 17:23:00,23.2,18.8,29.91,ENE,74,0.0,0.0,83,0.00,,,0.01,WUHU216DAVISVP2,2013-02-03 22:23:00,
2013-02-03 17:28:00,22.9,18.5,29.91,East,94,0.0,0.0,83,0.00,,,0.01,WUHU216DAVISVP2,2013-02-03 22:28:00,
2013-02-03 17:33:00,22.7,18.3,29.91,East,84,0.0,0.0,83,0.00,,,0.01,WUHU216DAVISVP2,2013-02-03 22:33:00,
2013-02-03 17:38:00,22.7,18.3,29.91,ENE,74,0.0,0.0,83,0.00,,,0.01,WUHU216DAVISVP2,2013-02-03 22:38:00,
2013-02-03 17:43:00,22.6,18.2,29.91,ENE,65,0.0,0.0,83,0.00,,,0.01,WUHU216DAVISVP2,2013-02-03 22:43:00,
2013-02-03 17:48:00,22.4,18.0,29.91,ENE,66,0.0,0.0,83,0.00,,,0.01,WUHU216DAVISVP2,2013-02-03 22:48:00,
2013-02-03 17:53:00,22.2,18.1,29.92,NE,43,0.0,0.0,84,0.00,,,0.01,WUHU216DAVISVP2,2013-02-03 22:53:00,
2013-02-03 17:58:00,22.2,18.1,29.92,ENE,71,0.0,0.0,84,0.00,,,0.01,WUHU216DAVISVP2,2013-02-03 22:58:00,
2013-02-03 18:03:00,22.2,18.3,29.92,SSE,167,0.0,0.0,85,0.00,,,0.01,WUHU216DAVISVP2,2013-02-03 23:03:00,
2013-02-03 18:08:00,22.4,18.8,29.92,SSE,167,0.0,0.0,86,0.00,,,0.01,WUHU216DAVISVP2,2013-02-03 23:08:00,
2013-02-03 18:13:00,22.2,18.3,29.93,SSE,167,0.0,0.0,85,0.00,,,0.01,WUHU216DAVISVP2,2013-02-03 23:13:00,
2013-02-03 18:18:00,22.0,17.9,29.93,SSE,167,0.0,0.0,84,0.00,,,0.01,WUHU216DAVISVP2,2013-02-03 23:18:00,
2013-02-03 18:24:00,21.9,17.8,29.93,SSE,167,0.0,0.0,84,0.00,,,0.01,WUHU216DAVISVP2,2013-02-03 23:24:00,
2013-02-03 18:29:00,21.9,17.5,29.94,SSE,167,0.0,0.0,83,0.00,,,0.01,WUHU216DAVISVP2,2013-02-03 23:29:00,
2013-02-03 18:34:00,21.8,17.1,29.94,SSE,167,0.0,0.0,82,0.00,,,0.01,WUHU216DAVISVP2,2013-02-03 23:34:00,
2013-02-03 18:39:00,21.8,16.9,29.94,SSE,167,0.0,0.0,81,0.00,,,0.01,WUHU216DAVISVP2,2013-02-03 23:39:00,
2013-02-03 18:44:00,21.8,16.6,29.94,SSE,167,0.0,0.0,80,0.00,,,0.01,WUHU216DAVISVP2,2013-02-03 23:44:00,
2013-02-03 18:49:00,21.9,16.7,29.95,SSE,167,0.0,0.0,80,0.00,,,0.01,WUHU216DAVISVP2,2013-02-03 23:49:00,
2013-02-03 18:54:00,21.9,16.1,29.95,SSE,167,0.0,0.0,78,0.00,,,0.01,WUHU216DAVISVP2,2013-02-03 23:54:00,
2013-02-03 18:59:00,21.7,15.6,29.94,SSE,167,0.0,0.0,77,0.00,,,0.01,WUHU216DAVISVP2,2013-02-03 23:59:00,
2013-02-03 19:04:00,21.6,15.8,29.95,ENE,65,0.0,0.0,78,0.00,,,0.01,WUHU216DAVISVP2,2013-02-04 00:04:00,
2013-02-03 19:09:00,21.7,15.9,29.95,ENE,59,0.0,0.0,78,0.00,,,0.01,WUHU216DAVISVP2,2013-02-04 00:09:00,
2013-02-03 19:14:00,21.7,16.2,29.96,SSE,167,0.0,0.0,79,0.00,,,0.01,WUHU216DAVISVP2,2013-02-04 00:14:00,
2013-02-03 19:19:00,21.6,16.1,29.96,SSE,167,0.0,0.0,79,0.00,,,0.01,WUHU216DAVISVP2,2013-02-04 00:19:00,
2013-02-03 19:24:00,21.5,16.0,29.96,ENE,58,0.0,0.0,79,0.00,,,0.01,WUHU216DAVISVP2,2013-02-04 00:24:00,
2013-02-03 19:30:00,21.4,16.2,29.96,ENE,69,0.0,0.0,80,0.00,,,0.01,WUHU216DAVISVP2,2013-02-04 00:30:00,
2013-02-03 19:35:00,21.3,16.4,29.96,ESE,104,0.0,0.0,81,0.00,,,0.01,WUHU216DAVISVP2,2013-02-04 00:35:00,
2013-02-03 19:40:00,21.0,16.9,29.96,NE,49,0.0,0.0,84,0.00,,,0.01,WUHU216DAVISVP2,2013-02-04 00:40:00,
2013-02-03 19:45:00,20.8,16.7,29.97,ESE,105,0.0,0.0,84,0.00,,,0.01,WUHU216DAVISVP2,2013-02-04 00:45:00,
2013-02-03 19:50:00,20.7,16.6,29.97,ENE,71,0.0,0.0,84,0.00,,,0.01,WUHU216DAVISVP2,2013-02-04 00:50:00,
2013-02-03 19:55:00,20.6,16.8,29.97,ESE,119,0.0,0.0,85,0.00,,,0.01,WUHU216DAVISVP2,2013-02-04 00:55:00,
2013-02-03 20:00:00,20.6,16.8,29.97,ESE,107,0.0,0.0,85,0.00,,,0.01,WUHU216DAVISVP2,2013-02-04 01:00:00,
2013-02-03 20:06:00,20.7,16.6,29.97,East,83,0.0,0.0,84,0.00,,,0.01,WUHU216DAVISVP2,2013-02-04 01:06:00,
2013-02-03 20:11:00,20.7,16.9,29.97,ENE,78,0.0,0.0,85,0.00,,,0.01,WUHU216DAVISVP2,2013-02-04 01:11:00,
2013-02-03 20:16:00,20.6,16.8,29.98,ENE,67,0.0,0.0,85,0.00,,,0.01,WUHU216DAVISVP2,2013-02-04 01:16:00,
2013-02-03 20:21:00,20.6,16.2,29.97,ENE,76,0.0,0.0,83,0.00,,,0.01,WUHU216DAVISVP2,2013-02-04 01:21:00,
2013-02-03 20:23:00,20.6,16.0,29.98,ENE,73,0.0,0.0,82,0.00,,,0.01,WUHU216DAVISVP2,2013-02-04 01:23:00,
2013-02-03 20:26:00,20.6,16.0,29.98,NE,46,0.0,0.0,82,0.00,,,0.01,WUHU216DAVISVP2,2013-02-04 01:26:00,
2013-02-03 20:31:00,20.6,16.0,29.98,ENE,73,0.0,0.0,82,0.00,,,0.01,WUHU216DAVISVP2,2013-02-04 01:31:00,
2013-02-03 20:36:00,20.6,15.7,29.98,ENE,67,0.0,0.0,81,0.00,,,0.01,WUHU216DAVISVP2,2013-02-04 01:36:00,
2013-02-03 20:41:00,20.8,15.9,29.98,ENE,64,0.0,0.0,81,0.00,,,0.01,WUHU216DAVISVP2,2013-02-04 01:41:00,
2013-02-03 20:46:00,20.9,15.7,29.98,ESE,104,0.0,0.0,80,0.00,,,0.01,WUHU216DAVISVP2,2013-02-04 01:46:00,
2013-02-03 20:51:00,20.9,15.7,29.98,NNE,29,0.0,0.0,80,0.00,,,0.01,WUHU216DAVISVP2,2013-02-04 01:51:00,
2013-02-03 20:57:00,20.9,15.7,29.99,NE,51,0.0,0.0,80,0.00,,,0.01,WUHU216DAVISVP2,2013-02-04 01:57:00,
2013-02-03 21:02:00,20.9,15.7,29.99,NE,40,0.0,0.0,80,0.00,,,0.01,WUHU216DAVISVP2,2013-02-04 02:02:00,
2013-02-03 21:07:00,20.9,15.7,29.99,ESE,113,0.0,0.0,80,0.00,,,0.01,WUHU216DAVISVP2,2013-02-04 02:07:00,
2013-02-03 21:12:00,20.8,15.6,29.99,East,87,0.0,0.0,80,0.00,,,0.01,WUHU216DAVISVP2,2013-02-04 02:12:00,
2013-02-03 21:17:00,20.9,15.7,29.99,NE,42,0.0,0.0,80,0.00,,,0.01,WUHU216DAVISVP2,2013-02-04 02:17:00,
2013-02-03 21:22:00,20.8,15.3,29.99,NE,47,0.0,0.0,79,0.00,,,0.01,WUHU216DAVISVP2,2013-02-04 02:22:00,
2013-02-03 21:27:00,20.8,15.6,29.99,East,89,0.0,0.0,80,0.00,,,0.01,WUHU216DAVISVP2,2013-02-04 02:27:00,
2013-02-03 21:32:00,20.7,15.5,29.99,East,89,0.0,0.0,80,0.00,,,0.01,WUHU216DAVISVP2,2013-02-04 02:32:00,
2013-02-03 21:38:00,20.8,15.6,30.00,East,89,0.0,0.0,80,0.00,,,0.01,WUHU216DAVISVP2,2013-02-04 02:38:00,
2013-02-03 21:43:00,20.7,15.5,29.99,East,89,0.0,0.0,80,0.00,,,0.01,WUHU216DAVISVP2,2013-02-04 02:43:00,
2013-02-03 21:48:00,20.7,15.8,30.00,East,89,0.0,0.0,81,0.00,,,0.01,WUHU216DAVISVP2,2013-02-04 02:48:00,
2013-02-03 21:53:00,20.7,15.8,30.00,East,89,0.0,0.0,81,0.00,,,0.01,WUHU216DAVISVP2,2013-02-04 02:53:00,
2013-02-03 21:58:00,20.7,15.8,30.00,East,89,0.0,0.0,81,0.00,,,0.01,WUHU216DAVISVP2,2013-02-04 02:58:00,
2013-02-03 22:03:00,20.7,15.8,30.00,East,89,0.0,0.0,81,0.00,,,0.01,WUHU216DAVISVP2,2013-02-04 03:03:00,
2013-02-03 22:08:00,20.7,15.8,30.00,East,88,0.0,0.0,81,0.00,,,0.01,WUHU216DAVISVP2,2013-02-04 03:08:00,
2013-02-03 22:13:00,20.7,15.8,30.00,East,88,0.0,0.0,81,0.00,,,0.01,WUHU216DAVISVP2,2013-02-04 03:13:00,
2013-02-03 22:18:00,20.8,15.9,30.00,East,88,0.0,0.0,81,0.00,,,0.01,WUHU216DAVISVP2,2013-02-04 03:18:00,
2013-02-03 22:23:00,20.7,15.8,30.00,East,88,0.0,0.0,81,0.00,,,0.01,WUHU216DAVISVP2,2013-02-04 03:23:00,
2013-02-03 22:28:00,20.7,16.1,30.00,East,88,0.0,0.0,82,0.00,,,0.01,WUHU216DAVISVP2,2013-02-04 03:28:00,
2013-02-03 22:34:00,20.7,15.8,30.00,East,88,0.0,0.0,81,0.00,,,0.01,WUHU216DAVISVP2,2013-02-04 03:34:00,
2013-02-03 22:39:00,20.7,16.1,30.00,East,88,0.0,0.0,82,0.00,,,0.01,WUHU216DAVISVP2,2013-02-04 03:39:00,
2013-02-03 22:44:00,20.7,16.1,30.01,East,88,0.0,0.0,82,0.00,,,0.01,WUHU216DAVISVP2,2013-02-04 03:44:00,
2013-02-03 22:49:00,20.6,16.0,30.00,East,88,0.0,0.0,82,0.00,,,0.01,WUHU216DAVISVP2,2013-02-04 03:49:00,
2013-02-03 22:54:00,20.6,16.0,30.01,East,88,0.0,0.0,82,0.00,,,0.01,WUHU216DAVISVP2,2013-02-04 03:54:00,
2013-02-03 22:59:00,20.6,16.0,30.01,East,88,0.0,0.0,82,0.00,,,0.01,WUHU216DAVISVP2,2013-02-04 03:59:00,
2013-02-03 23:04:00,20.6,16.0,30.01,East,88,0.0,0.0,82,0.00,,,0.01,WUHU216DAVISVP2,2013-02-04 04:04:00,
2013-02-03 23:09:00,20.6,16.2,30.00,East,88,0.0,0.0,83,0.00,,,0.01,WUHU216DAVISVP2,2013-02-04 04:09:00,
2013-02-03 23:14:00,20.7,16.6,30.00,East,88,0.0,0.0,84,0.00,,,0.01,WUHU216DAVISVP2,2013-02-04 04:14:00,
2013-02-03 23:19:00,20.7,16.6,30.00,East,88,0.0,0.0,84,0.00,,,0.01,WUHU216DAVISVP2,2013-02-04 04:19:00,
2013-02-03 23:24:00,20.7,16.6,29.99,East,88,0.0,0.0,84,0.00,,,0.01,WUHU216DAVISVP2,2013-02-04 04:24:00,
2013-02-03 23:30:00,20.7,16.9,29.99,East,88,0.0,0.0,85,0.00,,,0.01,WUHU216DAVISVP2,2013-02-04 04:30:00,
2013-02-03 23:35:00,20.7,16.9,30.00,East,88,0.0,0.0,85,0.00,,,0.01,WUHU216DAVISVP2,2013-02-04 04:35:00,
2013-02-03 23:40:00,20.7,16.9,30.00,East,88,0.0,0.0,85,0.00,,,0.01,WUHU216DAVISVP2,2013-02-04 04:40:00,
2013-02-03 23:45:00,20.7,16.9,29.99,East,88,0.0,0.0,85,0.00,,,0.01,WUHU216DAVISVP2,2013-02-04 04:45:00,
2013-02-03 23:50:00,20.7,16.9,29.99,East,88,0.0,0.0,85,0.00,,,0.01,WUHU216DAVISVP2,2013-02-04 04:50:00,
2013-02-03 23:55:00,20.7,17.1,29.99,East,88,0.0,0.0,86,0.00,,,0.01,WUHU216DAVISVP2,2013-02-04 04:55:00,